createdAt,value
2018-05-17T00:02:22.569Z,90.70
2018-05-17T00:04:50.828Z,90.90
2018-05-17T00:07:19.065Z,91.10
2018-05-17T00:09:46.529Z,91.20
2018-05-17T00:12:14.005Z,91.20
2018-05-17T00:14:41.477Z,91.10
2018-05-17T00:17:08.950Z,91.10
2018-05-17T00:19:36.492Z,91.20
2018-05-17T00:22:03.961Z,90.80
2018-05-17T00:24:31.513Z,90.80
2018-05-17T00:26:59.132Z,91.00
2018-05-17T00:29:26.585Z,91.20
2018-05-17T00:31:54.053Z,91.40
2018-05-17T00:34:21.516Z,91.30
2018-05-17T00:36:48.985Z,91.30
2018-05-17T00:39:16.449Z,91.30
2018-05-17T00:41:43.914Z,91.60
2018-05-17T00:44:11.543Z,91.80
2018-05-17T00:46:39.045Z,91.50
2018-05-17T00:49:06.609Z,91.50
2018-05-17T00:51:34.081Z,91.90
2018-05-17T00:54:02.348Z,92.00
2018-05-17T00:56:29.903Z,92.00
2018-05-17T00:58:57.461Z,91.90
2018-05-17T01:01:25.956Z,91.90
2018-05-17T01:03:53.425Z,91.80
2018-05-17T01:06:21.660Z,91.50
2018-05-17T01:08:49.299Z,91.40
2018-05-17T01:11:16.760Z,91.80
2018-05-17T01:13:44.225Z,91.90
2018-05-17T01:16:11.712Z,91.80
2018-05-17T01:18:39.193Z,92.00
2018-05-17T01:21:07.449Z,91.80
2018-05-17T01:23:35.009Z,91.80
2018-05-17T01:26:02.573Z,91.80
2018-05-17T01:28:30.050Z,91.80
2018-05-17T01:30:58.285Z,91.50
2018-05-17T01:33:25.749Z,91.70
2018-05-17T01:35:53.212Z,91.90
2018-05-17T01:38:25.596Z,92.00
2018-05-17T01:40:53.153Z,92.00
2018-05-17T01:43:20.622Z,91.90
2018-05-17T01:45:48.085Z,92.00
2018-05-17T01:48:15.628Z,91.80
2018-05-17T01:50:43.090Z,91.80
2018-05-17T01:53:10.648Z,91.60
2018-05-17T01:55:38.924Z,91.60
2018-05-17T01:58:06.489Z,91.60
2018-05-17T02:00:33.961Z,91.70
2018-05-17T02:03:01.505Z,91.80
2018-05-17T02:05:29.070Z,91.90
2018-05-17T02:07:56.624Z,92.00
2018-05-17T02:10:24.101Z,91.80
2018-05-17T02:12:51.645Z,91.90
2018-05-17T02:15:19.123Z,92.00
2018-05-17T02:17:47.377Z,92.00
2018-05-17T02:20:14.944Z,92.00
2018-05-17T02:22:42.402Z,92.10
2018-05-17T02:25:09.957Z,92.10
2018-05-17T02:27:37.432Z,92.20
2018-05-17T02:30:04.979Z,92.20
2018-05-17T02:32:32.450Z,92.10
2018-05-17T02:34:59.918Z,91.90
2018-05-17T02:37:28.153Z,92.00
2018-05-17T02:39:55.621Z,92.00
2018-05-17T02:42:23.093Z,92.00
2018-05-17T02:44:50.650Z,92.20
2018-05-17T02:47:18.116Z,91.90
2018-05-17T02:49:46.384Z,91.90
2018-05-17T02:52:13.861Z,91.80
2018-05-17T02:54:41.459Z,91.80
2018-05-17T02:57:08.918Z,91.60
2018-05-17T02:59:36.417Z,91.90
2018-05-17T03:02:03.897Z,91.90
2018-05-17T03:04:32.163Z,92.00
2018-05-17T03:06:59.624Z,92.00
2018-05-17T03:09:27.097Z,91.80
2018-05-17T03:11:55.345Z,91.60
2018-05-17T03:14:22.826Z,91.60
2018-05-17T03:16:51.083Z,91.60
2018-05-17T03:19:18.549Z,91.60
2018-05-17T03:21:46.092Z,92.00
2018-05-17T03:24:13.617Z,91.90
2018-05-17T03:26:41.122Z,91.80
2018-05-17T03:29:08.604Z,91.90
2018-05-17T03:31:36.837Z,92.10
2018-05-17T03:34:04.309Z,92.10
2018-05-17T03:36:31.781Z,92.00
2018-05-17T03:38:59.240Z,92.00
2018-05-17T03:41:26.787Z,91.90
2018-05-17T03:43:54.261Z,91.80
2018-05-17T03:46:21.733Z,91.70
2018-05-17T03:48:51.144Z,91.70
2018-05-17T03:51:19.372Z,91.90
2018-05-17T03:53:46.947Z,91.80
2018-05-17T03:56:14.504Z,91.80
2018-05-17T03:58:41.982Z,92.20
2018-05-17T04:01:22.252Z,91.70
2018-05-17T04:04:01.662Z,91.60
2018-05-17T04:06:42.285Z,91.60
2018-05-17T04:09:09.744Z,91.80
2018-05-17T04:11:37.213Z,91.60
2018-05-17T04:14:04.712Z,91.60
2018-05-17T04:16:33.086Z,91.50
2018-05-17T04:19:00.649Z,91.20
2018-05-17T04:21:28.138Z,90.90
2018-05-17T04:23:56.380Z,91.00
2018-05-17T04:26:23.851Z,91.00
2018-05-17T04:28:51.397Z,91.10
2018-05-17T04:31:18.867Z,91.20
2018-05-17T04:33:46.412Z,90.90
2018-05-17T04:36:13.888Z,91.00
2018-05-17T04:38:42.150Z,91.10
2018-05-17T04:41:09.616Z,90.80
2018-05-17T04:43:37.084Z,90.90
2018-05-17T04:46:05.343Z,90.80
2018-05-17T04:48:32.900Z,90.80
2018-05-17T04:51:00.385Z,91.50
2018-05-17T04:53:28.643Z,90.00
2018-05-17T04:55:56.197Z,90.00
2018-05-17T04:58:24.429Z,88.00
2018-05-17T05:00:51.888Z,88.00
2018-05-17T05:03:19.389Z,86.50
2018-05-17T05:05:46.845Z,87.20
2018-05-17T05:08:15.120Z,87.70
2018-05-17T05:10:42.585Z,87.60
2018-05-17T05:13:10.145Z,87.00
2018-05-17T05:15:38.432Z,88.50
2018-05-17T05:18:05.872Z,88.50
2018-05-17T05:20:33.337Z,87.60
2018-05-17T05:23:00.799Z,88.20
2018-05-17T05:25:29.069Z,84.40
2018-05-17T05:27:56.626Z,84.40
2018-05-17T05:30:24.090Z,82.70
2018-05-17T05:32:52.320Z,82.00
2018-05-17T05:35:19.777Z,82.00
2018-05-17T05:37:47.281Z,82.10
2018-05-17T05:40:14.845Z,82.40
2018-05-17T05:42:42.317Z,83.20
2018-05-17T05:45:09.859Z,84.30
2018-05-17T05:47:37.434Z,85.50
2018-05-17T05:50:04.984Z,85.30
2018-05-17T05:52:32.542Z,84.30
2018-05-17T05:54:59.997Z,85.50
2018-05-17T05:57:27.559Z,86.70
2018-05-17T05:59:55.119Z,85.70
2018-05-17T06:02:22.720Z,85.80
2018-05-17T06:04:50.202Z,86.50
2018-05-17T06:07:17.605Z,87.30
2018-05-17T06:09:45.157Z,86.20
2018-05-17T06:12:13.493Z,85.00
2018-05-17T06:14:40.949Z,85.00
2018-05-17T06:17:08.453Z,85.10
2018-05-17T06:19:35.913Z,84.80
2018-05-17T06:22:03.426Z,84.80
2018-05-17T06:24:30.922Z,84.10
2018-05-17T06:26:58.340Z,83.40
2018-05-17T06:29:25.797Z,83.90
2018-05-17T06:31:53.361Z,83.50
2018-05-17T06:34:20.857Z,82.10
2018-05-17T06:36:48.484Z,82.80
2018-05-17T06:39:15.984Z,81.30
2018-05-17T06:41:43.456Z,80.60
2018-05-17T06:44:10.996Z,80.40
2018-05-17T06:46:38.560Z,81.30
2018-05-17T06:49:06.129Z,80.50
2018-05-17T06:51:33.589Z,78.30
2018-05-17T06:54:01.048Z,78.40
2018-05-17T06:56:28.593Z,77.50
2018-05-17T06:58:56.117Z,78.90
2018-05-17T07:01:23.617Z,78.10
2018-05-17T07:03:51.178Z,76.20
2018-05-17T07:06:18.734Z,75.40
2018-05-17T07:08:46.297Z,73.30
2018-05-17T07:11:13.757Z,75.40
2018-05-17T07:13:41.213Z,76.60
2018-05-17T07:16:08.683Z,76.90
2018-05-17T07:18:36.403Z,74.60
2018-05-17T07:21:03.689Z,71.60
2018-05-17T07:23:31.157Z,72.50
2018-05-17T07:25:58.626Z,72.20
2018-05-17T07:28:26.877Z,71.80
2018-05-17T07:30:54.438Z,71.80
2018-05-17T07:33:21.895Z,71.10
2018-05-17T07:35:49.462Z,71.20
2018-05-17T07:38:17.021Z,72.00
2018-05-17T07:40:44.580Z,70.90
2018-05-17T07:43:12.041Z,71.00
2018-05-17T07:45:39.497Z,70.70
2018-05-17T07:48:06.957Z,71.10
2018-05-17T07:50:34.424Z,71.70
2018-05-17T07:53:01.929Z,71.30
2018-05-17T07:55:29.520Z,71.40
2018-05-17T07:57:56.993Z,71.60
2018-05-17T08:00:24.569Z,69.70
2018-05-17T08:02:52.112Z,69.30
2018-05-17T08:05:19.672Z,71.10
2018-05-17T08:07:47.238Z,71.10
2018-05-17T08:10:14.793Z,69.90
2018-05-17T08:12:42.265Z,70.10
2018-05-17T08:15:09.815Z,69.10
2018-05-17T08:17:37.377Z,70.80
2018-05-17T08:20:05.597Z,70.60
2018-05-17T08:22:33.105Z,70.60
2018-05-17T08:25:00.569Z,71.10
2018-05-17T08:27:28.124Z,70.80
2018-05-17T08:29:55.685Z,70.10
2018-05-17T08:32:23.922Z,70.40
2018-05-17T08:34:51.420Z,70.40
2018-05-17T08:37:18.886Z,71.10
2018-05-17T08:39:46.342Z,70.90
2018-05-17T08:42:13.904Z,71.70
2018-05-17T08:44:42.235Z,68.90
2018-05-17T08:47:09.680Z,68.90
2018-05-17T08:49:37.138Z,70.00
2018-05-17T08:52:04.649Z,70.10
2018-05-17T08:54:32.135Z,69.40
2018-05-17T08:57:00.385Z,70.70
2018-05-17T08:59:27.920Z,70.70
2018-05-17T09:01:55.416Z,70.40
2018-05-17T09:04:22.885Z,69.40
2018-05-17T09:06:51.110Z,67.40
2018-05-17T09:09:18.665Z,67.40
2018-05-17T09:11:46.113Z,68.20
2018-05-17T09:14:13.589Z,70.00
2018-05-17T09:16:41.048Z,69.90
2018-05-17T09:19:08.531Z,70.00
2018-05-17T09:21:35.989Z,71.30
2018-05-17T09:24:04.222Z,73.80
2018-05-17T09:26:31.677Z,73.70
2018-05-17T09:28:59.181Z,74.70
2018-05-17T09:31:26.745Z,75.30
2018-05-17T09:33:54.220Z,75.00
2018-05-17T09:36:22.472Z,75.50
2018-05-17T09:38:49.941Z,75.40
2018-05-17T09:41:17.489Z,75.60
2018-05-17T09:43:44.864Z,74.90
2018-05-17T09:46:12.475Z,74.90
2018-05-17T09:48:39.976Z,74.60
2018-05-17T09:51:08.268Z,74.20
2018-05-17T09:53:35.805Z,74.30
2018-05-17T09:56:03.373Z,73.60
2018-05-17T09:58:30.840Z,71.60
2018-05-17T10:00:58.298Z,72.00
2018-05-17T10:03:25.757Z,70.80
2018-05-17T10:05:53.220Z,70.80
2018-05-17T10:08:21.497Z,71.00
2018-05-17T10:10:48.954Z,71.00
2018-05-17T10:13:16.417Z,71.90
2018-05-17T10:15:44.650Z,73.60
2018-05-17T10:18:12.125Z,73.40
2018-05-17T10:20:39.691Z,71.30
2018-05-17T10:23:07.320Z,70.30
2018-05-17T10:25:34.713Z,70.00
2018-05-17T10:28:02.168Z,70.10
2018-05-17T10:30:29.629Z,71.30
2018-05-17T10:32:57.105Z,71.90
2018-05-17T10:35:25.336Z,72.60
2018-05-17T10:37:52.813Z,72.50
2018-05-17T10:40:20.269Z,73.90
2018-05-17T10:42:47.838Z,72.60
2018-05-17T10:45:16.193Z,71.80
2018-05-17T10:47:43.669Z,69.90
2018-05-17T10:50:11.229Z,68.90
2018-05-17T10:52:38.689Z,67.80
2018-05-17T10:55:06.157Z,66.70
2018-05-17T10:57:33.617Z,65.90
2018-05-17T11:00:01.164Z,64.80
2018-05-17T11:02:28.631Z,64.80
2018-05-17T11:04:56.181Z,64.10
2018-05-17T11:07:23.745Z,63.60
2018-05-17T11:09:51.312Z,63.80
2018-05-17T11:12:18.943Z,62.90
2018-05-17T11:14:46.424Z,63.30
2018-05-17T11:17:14.661Z,64.40
2018-05-17T11:19:42.123Z,63.60
2018-05-17T11:22:09.624Z,64.60
2018-05-17T11:24:37.120Z,61.70
2018-05-17T11:27:05.353Z,60.10
2018-05-17T11:29:32.915Z,60.00
2018-05-17T11:32:00.377Z,58.50
2018-05-17T11:34:27.841Z,59.50
2018-05-17T11:36:55.395Z,59.90
2018-05-17T11:39:22.848Z,60.30
2018-05-17T11:41:50.388Z,58.10
2018-05-17T11:44:17.869Z,59.50
2018-05-17T11:46:45.429Z,59.00
2018-05-17T11:49:12.984Z,60.20
2018-05-17T11:51:40.440Z,61.20
2018-05-17T11:54:07.901Z,63.00
2018-05-17T11:56:35.466Z,63.80
2018-05-17T11:59:03.025Z,65.20
2018-05-17T12:01:30.603Z,65.30
2018-05-17T12:03:58.045Z,64.50
2018-05-17T12:06:25.600Z,63.30
2018-05-17T12:08:53.166Z,63.30
2018-05-17T12:11:20.682Z,63.30
2018-05-17T12:13:48.176Z,62.90
2018-05-17T12:16:15.632Z,63.10
2018-05-17T12:18:43.093Z,61.90
2018-05-17T12:21:10.665Z,61.70
2018-05-17T12:23:38.225Z,62.70
2018-05-17T12:26:05.680Z,64.20
2018-05-17T12:28:33.138Z,62.90
2018-05-17T12:31:00.693Z,63.70
2018-05-17T12:33:28.256Z,64.70
2018-05-17T12:35:55.774Z,65.40
2018-05-17T12:38:23.231Z,66.70
2018-05-17T12:40:50.691Z,67.10
2018-05-17T12:43:18.149Z,66.60
2018-05-17T12:45:45.645Z,67.60
2018-05-17T12:48:13.105Z,68.40
2018-05-17T12:50:40.568Z,71.00
2018-05-17T12:53:08.121Z,71.90
2018-05-17T12:55:35.584Z,73.10
2018-05-17T12:58:03.857Z,73.90
2018-05-17T13:00:31.421Z,73.80
2018-05-17T13:02:58.984Z,74.20
2018-05-17T13:05:26.599Z,74.80
2018-05-17T13:07:54.101Z,73.80
2018-05-17T13:10:21.569Z,74.10
2018-05-17T13:12:49.076Z,72.20
2018-05-17T13:15:16.537Z,71.90
2018-05-17T13:17:43.992Z,73.00
2018-05-17T13:20:11.488Z,72.00
2018-05-17T13:22:38.945Z,68.80
2018-05-17T13:25:06.405Z,68.60
2018-05-17T13:27:33.972Z,67.70
2018-05-17T13:30:01.443Z,66.30
2018-05-17T13:32:28.910Z,66.80
2018-05-17T13:34:57.164Z,67.40
2018-05-17T13:37:24.797Z,67.40
2018-05-17T13:39:52.954Z,68.70
2018-05-17T13:42:20.463Z,68.80
2018-05-17T13:44:47.921Z,69.20
2018-05-17T13:47:16.194Z,70.80
2018-05-17T13:49:43.806Z,70.90
2018-05-17T13:52:11.310Z,71.30
2018-05-17T13:54:38.763Z,71.70
2018-05-17T13:57:06.335Z,64.90
2018-05-17T13:59:33.789Z,64.40
2018-05-17T14:02:01.349Z,64.80
2018-05-17T14:04:28.906Z,63.80
2018-05-17T14:06:56.472Z,66.20
2018-05-17T14:09:23.937Z,68.70
2018-05-17T14:11:51.486Z,71.70
2018-05-17T14:14:19.048Z,76.70
2018-05-17T14:16:46.609Z,80.30
2018-05-17T14:19:14.075Z,81.40
2018-05-17T14:21:41.533Z,83.80
2018-05-17T14:24:09.080Z,85.30
2018-05-17T14:26:36.540Z,86.30
2018-05-17T14:29:04.107Z,86.10
2018-05-17T14:31:32.376Z,87.20
2018-05-17T14:33:59.835Z,87.20
2018-05-17T14:36:27.398Z,87.80
2018-05-17T14:38:54.960Z,88.80
2018-05-17T14:41:22.517Z,89.60
2018-05-17T14:43:49.988Z,89.90
2018-05-17T14:46:17.448Z,89.90
2018-05-17T14:48:44.997Z,90.00
2018-05-17T14:51:12.461Z,90.40
2018-05-17T14:53:39.973Z,90.20
2018-05-17T14:56:07.433Z,90.40
2018-05-17T14:58:34.930Z,90.20
2018-05-17T15:01:02.389Z,90.30
2018-05-17T15:03:29.951Z,90.40
2018-05-17T15:05:57.401Z,90.50
2018-05-17T15:08:24.970Z,90.20
2018-05-17T15:10:52.429Z,90.50
2018-05-17T15:13:20.051Z,91.00
2018-05-17T15:15:47.506Z,91.10
2018-05-17T15:18:14.966Z,91.00
2018-05-17T15:20:42.425Z,90.60
2018-05-17T15:23:09.916Z,90.70
2018-05-17T15:25:37.484Z,90.80
2018-05-17T15:28:04.940Z,90.70
2018-05-17T15:30:32.496Z,90.60
2018-05-17T15:32:59.948Z,90.50
2018-05-17T15:35:27.430Z,90.70
2018-05-17T15:37:54.889Z,91.00
2018-05-17T15:40:22.433Z,91.20
2018-05-17T15:42:49.994Z,91.30
2018-05-17T15:45:17.448Z,91.10
2018-05-17T15:47:45.032Z,91.20
2018-05-17T15:50:13.264Z,91.50
2018-05-17T15:52:40.717Z,91.40
2018-05-17T15:55:08.206Z,91.50
2018-05-17T15:57:35.843Z,91.30
2018-05-17T16:00:03.230Z,91.60
2018-05-17T16:02:30.695Z,91.60
2018-05-17T16:04:58.152Z,91.90
2018-05-17T16:07:25.620Z,91.80
2018-05-17T16:09:53.873Z,91.50
2018-05-17T16:12:21.343Z,91.50
2018-05-17T16:14:48.928Z,91.40
2018-05-17T16:17:16.365Z,91.40
2018-05-17T16:19:43.824Z,91.40
2018-05-17T16:22:12.068Z,91.70
2018-05-17T16:24:39.546Z,91.60
2018-05-17T16:27:07.105Z,91.10
2018-05-17T16:29:34.619Z,91.00
2018-05-17T16:32:02.099Z,91.10
2018-05-17T16:34:29.562Z,91.10
2018-05-17T16:36:57.020Z,90.90
2018-05-17T16:39:24.485Z,90.80
2018-05-17T16:41:52.056Z,90.80
2018-05-17T16:44:19.535Z,90.40
2018-05-17T16:46:47.776Z,90.10
2018-05-17T16:49:15.249Z,89.80
2018-05-17T16:51:42.805Z,89.30
2018-05-17T16:54:10.276Z,89.00
2018-05-17T16:56:37.824Z,90.10
2018-05-17T16:59:05.388Z,90.50
2018-05-17T17:01:32.949Z,90.60
2018-05-17T17:04:00.420Z,90.90
2018-05-17T17:06:27.890Z,90.90
2018-05-17T17:08:56.141Z,91.10
2018-05-17T17:11:23.612Z,91.10
2018-05-17T17:13:51.161Z,91.10
2018-05-17T17:16:18.637Z,90.70
2018-05-17T17:18:46.881Z,91.30
2018-05-17T17:21:14.340Z,91.10
2018-05-17T17:23:41.813Z,91.20
2018-05-17T17:26:09.381Z,91.00
2018-05-17T17:28:36.849Z,90.80
2018-05-17T17:31:05.094Z,91.30
2018-05-17T17:33:32.721Z,91.00
2018-05-17T17:36:00.226Z,91.10
2018-05-17T17:38:27.785Z,91.50
2018-05-17T17:40:55.406Z,91.60
2018-05-17T17:43:22.865Z,91.70
2018-05-17T17:45:50.328Z,91.80
2018-05-17T17:48:17.792Z,91.90
2018-05-17T17:50:45.265Z,91.90
2018-05-17T17:53:12.748Z,92.00
2018-05-17T17:55:40.304Z,92.20
2018-05-17T17:58:07.780Z,92.00
2018-05-17T18:00:36.013Z,92.20
2018-05-17T18:03:03.489Z,91.90
2018-05-17T18:05:31.007Z,92.10
2018-05-17T18:07:59.212Z,92.20
2018-05-17T18:10:26.676Z,92.20
2018-05-17T18:12:54.307Z,92.30
2018-05-17T18:15:21.764Z,92.60
2018-05-17T18:17:49.264Z,92.70
2018-05-17T18:20:16.824Z,92.80
2018-05-17T18:22:44.392Z,92.70
2018-05-17T18:25:11.901Z,92.80
2018-05-17T18:27:39.357Z,92.70
2018-05-17T18:30:06.861Z,92.80
2018-05-17T18:32:34.401Z,92.60
2018-05-17T18:35:02.604Z,92.60
2018-05-17T18:37:30.061Z,92.50
2018-05-17T18:39:57.617Z,92.50
2018-05-17T18:42:25.172Z,92.60
2018-05-17T18:44:52.748Z,92.70
2018-05-17T18:47:20.201Z,92.70
2018-05-17T18:49:47.753Z,92.80
2018-05-17T18:52:15.312Z,92.90
2018-05-17T18:54:42.877Z,93.00
2018-05-17T18:57:10.394Z,92.80
2018-05-17T18:59:37.902Z,92.80
2018-05-17T19:02:06.173Z,92.70
2018-05-17T19:04:33.724Z,92.70
2018-05-17T19:07:01.294Z,92.90
2018-05-17T19:09:28.770Z,92.70
2018-05-17T19:11:56.228Z,92.70
2018-05-17T19:14:24.461Z,92.50
2018-05-17T19:16:51.945Z,92.50
2018-05-17T19:19:19.501Z,92.80
2018-05-17T19:21:47.056Z,92.90
2018-05-17T19:24:14.629Z,92.90
2018-05-17T19:26:42.094Z,92.90
2018-05-17T19:29:09.701Z,93.00
2018-05-17T19:31:37.221Z,92.90
2018-05-17T19:34:04.660Z,93.20
2018-05-17T19:36:32.132Z,93.00
2018-05-17T19:38:59.677Z,93.00
2018-05-17T19:41:27.141Z,93.00
2018-05-17T19:43:54.618Z,93.00
2018-05-17T19:46:22.873Z,93.20
2018-05-17T19:48:50.424Z,92.90
2018-05-17T19:51:17.988Z,93.10
2018-05-17T19:53:45.453Z,93.00
2018-05-17T19:56:12.925Z,92.80
2018-05-17T19:58:40.392Z,92.90
2018-05-17T20:01:08.645Z,93.00
2018-05-17T20:03:36.201Z,93.00
2018-05-17T20:06:03.669Z,93.10
2018-05-17T20:08:31.225Z,92.90
2018-05-17T20:10:58.784Z,92.60
2018-05-17T20:13:26.264Z,92.40
2018-05-17T20:15:53.724Z,92.20
2018-05-17T20:18:21.961Z,92.40
2018-05-17T20:20:49.537Z,92.40
2018-05-17T20:23:17.010Z,92.50
2018-05-17T20:25:44.473Z,92.40
2018-05-17T20:28:12.795Z,92.40
2018-05-17T20:30:40.292Z,92.40
2018-05-17T20:33:07.757Z,92.60
2018-05-17T20:35:36.020Z,92.70
2018-05-17T20:38:03.496Z,92.70
2018-05-17T20:40:31.038Z,92.40
2018-05-17T20:42:58.605Z,92.10
2018-05-17T20:45:26.068Z,92.20
2018-05-17T20:47:53.543Z,92.40
2018-05-17T20:50:21.793Z,92.60
2018-05-17T20:52:49.256Z,92.50
2018-05-17T20:55:16.761Z,92.60
2018-05-17T20:57:44.185Z,92.60
2018-05-17T21:00:11.732Z,92.70
2018-05-17T21:02:39.284Z,92.50
2018-05-17T21:05:06.854Z,92.50
2018-05-17T21:07:34.421Z,92.50
2018-05-17T21:10:01.968Z,92.50
2018-05-17T21:12:30.249Z,92.70
2018-05-17T21:14:57.810Z,92.70
2018-05-17T21:17:25.277Z,92.60
2018-05-17T21:19:52.736Z,92.50
2018-05-17T21:22:20.285Z,92.40
2018-05-17T21:24:47.762Z,92.50
2018-05-17T21:27:15.286Z,92.70
2018-05-17T21:29:43.456Z,92.60
2018-05-17T21:32:10.995Z,92.50
2018-05-17T21:34:38.445Z,92.40
2018-05-17T21:37:05.953Z,92.70
2018-05-17T21:39:33.517Z,92.30
2018-05-17T21:42:01.075Z,91.90
2018-05-17T21:44:29.411Z,92.30
2018-05-17T21:46:56.865Z,92.30
2018-05-17T21:49:24.385Z,92.30
2018-05-17T21:51:51.929Z,92.50
2018-05-17T21:54:19.493Z,92.40
2018-05-17T21:56:46.972Z,92.70
2018-05-17T21:59:15.204Z,92.80
2018-05-17T22:01:42.689Z,92.80
2018-05-17T22:04:10.161Z,92.50
2018-05-17T22:06:38.389Z,92.70
2018-05-17T22:09:05.852Z,92.50
2018-05-17T22:11:33.321Z,92.50
2018-05-17T22:14:00.897Z,92.70
2018-05-17T22:16:28.449Z,92.50
2018-05-17T22:18:55.973Z,92.40
2018-05-17T22:21:23.473Z,92.40
2018-05-17T22:23:50.949Z,92.40
2018-05-17T22:26:18.416Z,92.30
2018-05-17T22:28:46.677Z,92.30
2018-05-17T22:31:14.225Z,92.30
2018-05-17T22:33:41.744Z,92.40
2018-05-17T22:36:09.305Z,92.50
2018-05-17T22:38:36.761Z,92.40
2018-05-17T22:41:04.260Z,92.50
2018-05-17T22:43:31.825Z,92.70
2018-05-17T22:45:59.300Z,92.60
2018-05-17T22:48:26.844Z,92.60
2018-05-17T22:50:54.405Z,92.60
2018-05-17T22:53:21.966Z,92.70
2018-05-17T22:55:49.525Z,92.60
2018-05-17T22:58:29.681Z,92.70
2018-05-17T23:00:58.081Z,92.50
2018-05-17T23:03:26.334Z,92.50
2018-05-17T23:05:53.805Z,92.40
2018-05-17T23:08:21.270Z,92.60
2018-05-17T23:10:49.537Z,92.90
2018-05-17T23:13:17.084Z,92.90
2018-05-17T23:15:45.365Z,92.90
2018-05-17T23:18:12.845Z,93.00
2018-05-17T23:20:41.100Z,92.70
2018-05-17T23:23:08.568Z,92.60
2018-05-17T23:25:36.052Z,92.70
2018-05-17T23:28:04.353Z,92.80
2018-05-17T23:30:31.810Z,92.50
2018-05-17T23:32:59.285Z,92.60
2018-05-17T23:35:26.756Z,92.40
2018-05-17T23:37:54.217Z,92.50
2018-05-17T23:40:33.484Z,92.40
2018-05-17T23:43:01.740Z,92.40
2018-05-17T23:45:29.209Z,92.40
2018-05-17T23:47:56.682Z,92.30
2018-05-17T23:50:25.740Z,92.40
2018-05-17T23:52:53.212Z,92.40
2018-05-17T23:55:20.688Z,92.60
2018-05-17T23:57:48.948Z,92.80
